sensor_id;sensor_type;location;lat;lon;timestamp;P1;durP1;ratioP1;P2;durP2;ratioP2
25049;SDS011;13046;49.814;9.918;2024-01-15T00:01:28;66.35;;;28.45;;
25049;SDS011;13046;49.814;9.918;2024-01-15T00:03:54;68.03;;;27.73;;
25049;SDS011;13046;49.814;9.918;2024-01-15T00:06:20;62.22;;;26.60;;
25049;SDS011;13046;49.814;9.918;2024-01-15T00:08:46;74.97;;;30.02;;
25049;SDS011;13046;49.814;9.918;2024-01-15T00:11:13;78.30;;;29.35;;
25049;SDS011;13046;49.814;9.918;2024-01-15T00:13:39;67.88;;;27.15;;
25049;SDS011;13046;49.814;9.918;2024-01-15T00:16:05;55.08;;;24.90;;
25049;SDS011;13046;49.814;9.918;2024-01-15T00:18:31;54.80;;;26.15;;
25049;SDS011;13046;49.814;9.918;2024-01-15T00:20:57;69.88;;;27.80;;
25049;SDS011;13046;49.814;9.918;2024-01-15T00:23:23;58.40;;;28.35;;
25049;SDS011;13046;49.814;9.918;2024-01-15T00:25:50;60.85;;;26.00;;
25049;SDS011;13046;49.814;9.918;2024-01-15T00:28:17;75.47;;;27.38;;
25049;SDS011;13046;49.814;9.918;2024-01-15T00:30:43;61.70;;;24.90;;
25049;SDS011;13046;49.814;9.918;2024-01-15T00:33:09;69.15;;;26.58;;
25049;SDS011;13046;49.814;9.918;2024-01-15T00:35:37;59.40;;;26.48;;
25049;SDS011;13046;49.814;9.918;2024-01-15T00:38:03;65.65;;;25.27;;
25049;SDS011;13046;49.814;9.918;2024-01-15T00:40:29;66.38;;;26.08;;
25049;SDS011;13046;49.814;9.918;2024-01-15T00:42:55;45.72;;;19.80;;
25049;SDS011;13046;49.814;9.918;2024-01-15T00:45:22;65.75;;;25.40;;
25049;SDS011;13046;49.814;9.918;2024-01-15T00:47:48;71.85;;;29.27;;
25049;SDS011;13046;49.814;9.918;2024-01-15T00:50:14;60.00;;;24.48;;
25049;SDS011;13046;49.814;9.918;2024-01-15T00:52:40;57.53;;;24.75;;
25049;SDS011;13046;49.814;9.918;2024-01-15T00:55:06;77.15;;;25.15;;
25049;SDS011;13046;49.814;9.918;2024-01-15T00:57:33;62.65;;;25.52;;
25049;SDS011;13046;49.814;9.918;2024-01-15T00:59:59;64.50;;;26.05;;
25049;SDS011;13046;49.814;9.918;2024-01-15T01:02:25;72.38;;;26.98;;
25049;SDS011;13046;49.814;9.918;2024-01-15T01:04:52;69.70;;;28.17;;
25049;SDS011;13046;49.814;9.918;2024-01-15T01:07:18;71.75;;;27.38;;
25049;SDS011;13046;49.814;9.918;2024-01-15T01:09:44;66.65;;;28.83;;
25049;SDS011;13046;49.814;9.918;2024-01-15T01:12:10;71.78;;;29.80;;
25049;SDS011;13046;49.814;9.918;2024-01-15T01:14:37;60.53;;;26.92;;
25049;SDS011;13046;49.814;9.918;2024-01-15T01:17:03;67.47;;;28.40;;
25049;SDS011;13046;49.814;9.918;2024-01-15T01:19:29;69.60;;;26.35;;
25049;SDS011;13046;49.814;9.918;2024-01-15T01:21:55;79.20;;;30.13;;
25049;SDS011;13046;49.814;9.918;2024-01-15T01:24:21;67.93;;;28.88;;
25049;SDS011;13046;49.814;9.918;2024-01-15T01:26:47;78.57;;;27.80;;
25049;SDS011;13046;49.814;9.918;2024-01-15T01:29:14;67.13;;;31.17;;
25049;SDS011;13046;49.814;9.918;2024-01-15T01:31:43;68.35;;;28.85;;
25049;SDS011;13046;49.814;9.918;2024-01-15T01:34:10;81.63;;;27.95;;
25049;SDS011;13046;49.814;9.918;2024-01-15T01:36:36;58.38;;;27.45;;
25049;SDS011;13046;49.814;9.918;2024-01-15T01:39:02;63.45;;;27.23;;
25049;SDS011;13046;49.814;9.918;2024-01-15T01:41:28;61.47;;;26.05;;
25049;SDS011;13046;49.814;9.918;2024-01-15T01:43:54;66.22;;;26.88;;
25049;SDS011;13046;49.814;9.918;2024-01-15T01:46:20;68.18;;;26.83;;
25049;SDS011;13046;49.814;9.918;2024-01-15T01:48:46;62.90;;;26.77;;
25049;SDS011;13046;49.814;9.918;2024-01-15T01:51:13;57.75;;;25.85;;
25049;SDS011;13046;49.814;9.918;2024-01-15T01:53:39;58.08;;;25.60;;
25049;SDS011;13046;49.814;9.918;2024-01-15T01:56:05;64.30;;;25.23;;
25049;SDS011;13046;49.814;9.918;2024-01-15T01:58:32;62.95;;;26.88;;
25049;SDS011;13046;49.814;9.918;2024-01-15T02:00:59;66.35;;;27.15;;
25049;SDS011;13046;49.814;9.918;2024-01-15T02:03:26;63.22;;;27.00;;
25049;SDS011;13046;49.814;9.918;2024-01-15T02:05:52;71.15;;;26.73;;
25049;SDS011;13046;49.814;9.918;2024-01-15T02:08:19;63.17;;;25.50;;
25049;SDS011;13046;49.814;9.918;2024-01-15T02:10:45;56.75;;;26.88;;
25049;SDS011;13046;49.814;9.918;2024-01-15T02:13:11;57.85;;;27.33;;
25049;SDS011;13046;49.814;9.918;2024-01-15T02:15:37;59.70;;;26.08;;
25049;SDS011;13046;49.814;9.918;2024-01-15T02:18:04;56.92;;;23.55;;
25049;SDS011;13046;49.814;9.918;2024-01-15T02:20:31;55.15;;;24.27;;
25049;SDS011;13046;49.814;9.918;2024-01-15T02:23:06;60.53;;;25.33;;
25049;SDS011;13046;49.814;9.918;2024-01-15T02:25:34;61.00;;;24.88;;
25049;SDS011;13046;49.814;9.918;2024-01-15T02:28:00;51.83;;;23.55;;
25049;SDS011;13046;49.814;9.918;2024-01-15T02:30:27;53.53;;;23.55;;
25049;SDS011;13046;49.814;9.918;2024-01-15T02:32:53;60.42;;;27.33;;
25049;SDS011;13046;49.814;9.918;2024-01-15T02:35:19;55.97;;;23.98;;
25049;SDS011;13046;49.814;9.918;2024-01-15T02:37:45;59.83;;;25.35;;
25049;SDS011;13046;49.814;9.918;2024-01-15T02:40:11;49.05;;;22.00;;
25049;SDS011;13046;49.814;9.918;2024-01-15T02:42:38;50.05;;;24.98;;
25049;SDS011;13046;49.814;9.918;2024-01-15T02:45:04;39.30;;;19.88;;
25049;SDS011;13046;49.814;9.918;2024-01-15T02:47:30;43.38;;;19.75;;
25049;SDS011;13046;49.814;9.918;2024-01-15T02:49:56;45.88;;;21.33;;
25049;SDS011;13046;49.814;9.918;2024-01-15T02:52:22;41.83;;;19.33;;
25049;SDS011;13046;49.814;9.918;2024-01-15T02:54:48;42.70;;;19.58;;
25049;SDS011;13046;49.814;9.918;2024-01-15T02:57:14;45.90;;;22.05;;
25049;SDS011;13046;49.814;9.918;2024-01-15T02:59:40;41.92;;;21.55;;
25049;SDS011;13046;49.814;9.918;2024-01-15T03:02:06;44.10;;;20.48;;
25049;SDS011;13046;49.814;9.918;2024-01-15T03:04:34;48.60;;;23.15;;
25049;SDS011;13046;49.814;9.918;2024-01-15T03:07:00;37.45;;;22.23;;
25049;SDS011;13046;49.814;9.918;2024-01-15T03:09:26;40.90;;;20.58;;
25049;SDS011;13046;49.814;9.918;2024-01-15T03:11:52;35.58;;;18.65;;
25049;SDS011;13046;49.814;9.918;2024-01-15T03:14:18;36.42;;;18.67;;
25049;SDS011;13046;49.814;9.918;2024-01-15T03:16:45;42.80;;;21.95;;
25049;SDS011;13046;49.814;9.918;2024-01-15T03:19:11;39.00;;;18.50;;
25049;SDS011;13046;49.814;9.918;2024-01-15T03:21:37;43.65;;;20.83;;
25049;SDS011;13046;49.814;9.918;2024-01-15T03:24:03;37.97;;;20.15;;
25049;SDS011;13046;49.814;9.918;2024-01-15T03:26:29;38.30;;;21.15;;
25049;SDS011;13046;49.814;9.918;2024-01-15T03:28:55;39.03;;;20.33;;
25049;SDS011;13046;49.814;9.918;2024-01-15T03:31:22;46.25;;;21.48;;
25049;SDS011;13046;49.814;9.918;2024-01-15T03:33:48;39.03;;;18.92;;
25049;SDS011;13046;49.814;9.918;2024-01-15T03:36:14;43.25;;;19.67;;
25049;SDS011;13046;49.814;9.918;2024-01-15T03:38:43;41.90;;;20.10;;
25049;SDS011;13046;49.814;9.918;2024-01-15T03:41:09;39.38;;;19.20;;
25049;SDS011;13046;49.814;9.918;2024-01-15T03:43:35;37.42;;;19.05;;
25049;SDS011;13046;49.814;9.918;2024-01-15T03:46:01;42.10;;;20.67;;
25049;SDS011;13046;49.814;9.918;2024-01-15T03:48:27;37.13;;;17.55;;
25049;SDS011;13046;49.814;9.918;2024-01-15T03:50:54;39.97;;;19.13;;
25049;SDS011;13046;49.814;9.918;2024-01-15T03:53:20;43.58;;;18.90;;
25049;SDS011;13046;49.814;9.918;2024-01-15T03:55:46;38.85;;;18.48;;
25049;SDS011;13046;49.814;9.918;2024-01-15T03:58:12;37.55;;;19.15;;
25049;SDS011;13046;49.814;9.918;2024-01-15T04:00:40;36.60;;;17.58;;
25049;SDS011;13046;49.814;9.918;2024-01-15T04:03:06;43.85;;;18.60;;
25049;SDS011;13046;49.814;9.918;2024-01-15T04:05:32;49.80;;;23.52;;
25049;SDS011;13046;49.814;9.918;2024-01-15T04:07:58;38.53;;;19.48;;
25049;SDS011;13046;49.814;9.918;2024-01-15T04:10:24;42.25;;;20.10;;
25049;SDS011;13046;49.814;9.918;2024-01-15T04:12:50;37.15;;;18.88;;
25049;SDS011;13046;49.814;9.918;2024-01-15T04:15:16;35.65;;;17.70;;
25049;SDS011;13046;49.814;9.918;2024-01-15T04:17:42;33.30;;;20.02;;
25049;SDS011;13046;49.814;9.918;2024-01-15T04:20:09;39.70;;;19.98;;
25049;SDS011;13046;49.814;9.918;2024-01-15T04:22:35;36.53;;;18.60;;
25049;SDS011;13046;49.814;9.918;2024-01-15T04:25:01;32.20;;;17.33;;
25049;SDS011;13046;49.814;9.918;2024-01-15T04:27:28;35.97;;;17.05;;
25049;SDS011;13046;49.814;9.918;2024-01-15T04:29:54;42.20;;;18.38;;
25049;SDS011;13046;49.814;9.918;2024-01-15T04:32:20;39.13;;;17.85;;
25049;SDS011;13046;49.814;9.918;2024-01-15T04:34:46;35.10;;;18.40;;
25049;SDS011;13046;49.814;9.918;2024-01-15T04:37:13;46.83;;;21.13;;
25049;SDS011;13046;49.814;9.918;2024-01-15T04:39:39;36.85;;;20.10;;
25049;SDS011;13046;49.814;9.918;2024-01-15T04:42:05;42.25;;;20.27;;
25049;SDS011;13046;49.814;9.918;2024-01-15T04:44:31;40.45;;;20.25;;
25049;SDS011;13046;49.814;9.918;2024-01-15T04:46:57;46.72;;;21.13;;
25049;SDS011;13046;49.814;9.918;2024-01-15T04:49:23;48.60;;;21.77;;
25049;SDS011;13046;49.814;9.918;2024-01-15T04:51:52;39.90;;;20.42;;
25049;SDS011;13046;49.814;9.918;2024-01-15T04:54:18;43.33;;;22.35;;
25049;SDS011;13046;49.814;9.918;2024-01-15T04:56:45;44.15;;;21.85;;
25049;SDS011;13046;49.814;9.918;2024-01-15T04:59:11;44.15;;;19.60;;
25049;SDS011;13046;49.814;9.918;2024-01-15T05:01:38;51.40;;;22.80;;
25049;SDS011;13046;49.814;9.918;2024-01-15T05:04:04;45.55;;;22.42;;
25049;SDS011;13046;49.814;9.918;2024-01-15T05:06:30;47.00;;;21.13;;
25049;SDS011;13046;49.814;9.918;2024-01-15T05:08:56;51.50;;;21.65;;
25049;SDS011;13046;49.814;9.918;2024-01-15T05:11:23;47.47;;;20.88;;
25049;SDS011;13046;49.814;9.918;2024-01-15T05:13:49;42.53;;;18.77;;
25049;SDS011;13046;49.814;9.918;2024-01-15T05:16:15;49.20;;;21.83;;
25049;SDS011;13046;49.814;9.918;2024-01-15T05:18:41;53.08;;;20.70;;
25049;SDS011;13046;49.814;9.918;2024-01-15T05:21:08;44.08;;;20.05;;
25049;SDS011;13046;49.814;9.918;2024-01-15T05:23:34;41.63;;;20.83;;
25049;SDS011;13046;49.814;9.918;2024-01-15T05:26:01;45.67;;;22.85;;
25049;SDS011;13046;49.814;9.918;2024-01-15T05:28:27;48.35;;;23.27;;
25049;SDS011;13046;49.814;9.918;2024-01-15T05:30:53;51.17;;;22.02;;
25049;SDS011;13046;49.814;9.918;2024-01-15T05:33:21;48.85;;;23.25;;
25049;SDS011;13046;49.814;9.918;2024-01-15T05:35:47;44.95;;;22.95;;
25049;SDS011;13046;49.814;9.918;2024-01-15T05:38:15;47.10;;;23.40;;
25049;SDS011;13046;49.814;9.918;2024-01-15T05:40:41;49.50;;;21.35;;
25049;SDS011;13046;49.814;9.918;2024-01-15T05:43:07;52.15;;;23.48;;
25049;SDS011;13046;49.814;9.918;2024-01-15T05:45:37;52.47;;;22.77;;
25049;SDS011;13046;49.814;9.918;2024-01-15T05:48:04;43.92;;;19.92;;
25049;SDS011;13046;49.814;9.918;2024-01-15T05:50:30;47.30;;;22.50;;
25049;SDS011;13046;49.814;9.918;2024-01-15T05:52:57;49.97;;;21.17;;
25049;SDS011;13046;49.814;9.918;2024-01-15T05:55:23;50.17;;;24.77;;
25049;SDS011;13046;49.814;9.918;2024-01-15T05:57:49;50.00;;;21.25;;
25049;SDS011;13046;49.814;9.918;2024-01-15T06:00:15;45.20;;;21.08;;
25049;SDS011;13046;49.814;9.918;2024-01-15T06:02:41;42.55;;;20.73;;
25049;SDS011;13046;49.814;9.918;2024-01-15T06:05:07;47.97;;;21.50;;
25049;SDS011;13046;49.814;9.918;2024-01-15T06:07:34;45.70;;;22.55;;
25049;SDS011;13046;49.814;9.918;2024-01-15T06:10:01;49.15;;;20.70;;
25049;SDS011;13046;49.814;9.918;2024-01-15T06:12:27;38.33;;;19.60;;
25049;SDS011;13046;49.814;9.918;2024-01-15T06:14:53;45.97;;;22.58;;
25049;SDS011;13046;49.814;9.918;2024-01-15T06:17:20;51.33;;;20.80;;
25049;SDS011;13046;49.814;9.918;2024-01-15T06:19:46;46.60;;;22.45;;
25049;SDS011;13046;49.814;9.918;2024-01-15T06:22:12;49.40;;;24.40;;
25049;SDS011;13046;49.814;9.918;2024-01-15T06:24:38;43.58;;;21.05;;
25049;SDS011;13046;49.814;9.918;2024-01-15T06:27:04;39.80;;;20.83;;
25049;SDS011;13046;49.814;9.918;2024-01-15T06:29:30;52.35;;;19.27;;
25049;SDS011;13046;49.814;9.918;2024-01-15T06:31:56;46.10;;;19.77;;
25049;SDS011;13046;49.814;9.918;2024-01-15T06:34:22;50.30;;;25.45;;
25049;SDS011;13046;49.814;9.918;2024-01-15T06:36:48;49.30;;;21.33;;
25049;SDS011;13046;49.814;9.918;2024-01-15T06:39:14;40.92;;;19.88;;
25049;SDS011;13046;49.814;9.918;2024-01-15T06:41:41;51.47;;;22.42;;
25049;SDS011;13046;49.814;9.918;2024-01-15T06:44:12;36.78;;;19.70;;
25049;SDS011;13046;49.814;9.918;2024-01-15T06:46:45;42.78;;;20.02;;
25049;SDS011;13046;49.814;9.918;2024-01-15T06:49:11;49.53;;;21.50;;
25049;SDS011;13046;49.814;9.918;2024-01-15T06:51:37;46.38;;;21.52;;
25049;SDS011;13046;49.814;9.918;2024-01-15T06:54:04;50.25;;;23.48;;
25049;SDS011;13046;49.814;9.918;2024-01-15T06:56:30;48.13;;;22.80;;
25049;SDS011;13046;49.814;9.918;2024-01-15T06:58:57;45.15;;;22.17;;
25049;SDS011;13046;49.814;9.918;2024-01-15T07:01:23;49.38;;;21.17;;
25049;SDS011;13046;49.814;9.918;2024-01-15T07:03:50;49.75;;;23.00;;
25049;SDS011;13046;49.814;9.918;2024-01-15T07:06:16;49.15;;;23.83;;
25049;SDS011;13046;49.814;9.918;2024-01-15T07:08:42;51.85;;;21.25;;
25049;SDS011;13046;49.814;9.918;2024-01-15T07:11:08;46.53;;;20.67;;
25049;SDS011;13046;49.814;9.918;2024-01-15T07:13:35;46.38;;;21.77;;
25049;SDS011;13046;49.814;9.918;2024-01-15T07:16:02;47.50;;;21.02;;
25049;SDS011;13046;49.814;9.918;2024-01-15T07:18:29;42.30;;;20.42;;
25049;SDS011;13046;49.814;9.918;2024-01-15T07:20:55;46.88;;;22.83;;
25049;SDS011;13046;49.814;9.918;2024-01-15T07:23:21;35.83;;;18.17;;
25049;SDS011;13046;49.814;9.918;2024-01-15T07:25:47;41.92;;;21.08;;
25049;SDS011;13046;49.814;9.918;2024-01-15T07:28:13;44.78;;;20.35;;
25049;SDS011;13046;49.814;9.918;2024-01-15T07:30:39;46.40;;;20.73;;
25049;SDS011;13046;49.814;9.918;2024-01-15T07:33:05;45.50;;;21.25;;
25049;SDS011;13046;49.814;9.918;2024-01-15T07:35:31;74.28;;;37.40;;
25049;SDS011;13046;49.814;9.918;2024-01-15T07:37:57;56.00;;;29.05;;
25049;SDS011;13046;49.814;9.918;2024-01-15T07:40:24;65.05;;;35.65;;
25049;SDS011;13046;49.814;9.918;2024-01-15T07:42:50;48.33;;;23.73;;
25049;SDS011;13046;49.814;9.918;2024-01-15T07:45:16;46.20;;;21.27;;
25049;SDS011;13046;49.814;9.918;2024-01-15T07:47:43;45.28;;;24.05;;
25049;SDS011;13046;49.814;9.918;2024-01-15T07:50:09;46.03;;;22.38;;
25049;SDS011;13046;49.814;9.918;2024-01-15T07:52:35;46.08;;;23.15;;
25049;SDS011;13046;49.814;9.918;2024-01-15T07:55:01;46.15;;;21.25;;
25049;SDS011;13046;49.814;9.918;2024-01-15T07:57:30;46.20;;;21.27;;
25049;SDS011;13046;49.814;9.918;2024-01-15T07:59:57;47.20;;;22.02;;
25049;SDS011;13046;49.814;9.918;2024-01-15T08:02:23;37.53;;;19.90;;
25049;SDS011;13046;49.814;9.918;2024-01-15T08:04:49;43.88;;;22.45;;
25049;SDS011;13046;49.814;9.918;2024-01-15T08:07:15;40.80;;;20.10;;
25049;SDS011;13046;49.814;9.918;2024-01-15T08:09:42;43.72;;;20.95;;
25049;SDS011;13046;49.814;9.918;2024-01-15T08:12:09;41.42;;;18.42;;
25049;SDS011;13046;49.814;9.918;2024-01-15T08:14:35;35.33;;;18.25;;
25049;SDS011;13046;49.814;9.918;2024-01-15T08:17:01;42.58;;;19.27;;
25049;SDS011;13046;49.814;9.918;2024-01-15T08:19:27;39.97;;;20.05;;
25049;SDS011;13046;49.814;9.918;2024-01-15T08:21:53;38.13;;;19.15;;
25049;SDS011;13046;49.814;9.918;2024-01-15T08:24:19;44.80;;;20.17;;
25049;SDS011;13046;49.814;9.918;2024-01-15T08:26:45;32.75;;;18.90;;
25049;SDS011;13046;49.814;9.918;2024-01-15T08:29:11;38.92;;;18.83;;
25049;SDS011;13046;49.814;9.918;2024-01-15T08:31:37;43.50;;;18.48;;
25049;SDS011;13046;49.814;9.918;2024-01-15T08:34:04;37.00;;;18.23;;
25049;SDS011;13046;49.814;9.918;2024-01-15T08:36:30;35.97;;;18.15;;
25049;SDS011;13046;49.814;9.918;2024-01-15T08:38:56;39.92;;;18.83;;
25049;SDS011;13046;49.814;9.918;2024-01-15T08:41:23;34.00;;;18.27;;
25049;SDS011;13046;49.814;9.918;2024-01-15T08:43:49;43.45;;;19.15;;
25049;SDS011;13046;49.814;9.918;2024-01-15T08:46:16;43.00;;;19.25;;
25049;SDS011;13046;49.814;9.918;2024-01-15T08:48:42;36.35;;;17.95;;
25049;SDS011;13046;49.814;9.918;2024-01-15T08:51:08;36.65;;;18.67;;
25049;SDS011;13046;49.814;9.918;2024-01-15T08:53:34;32.22;;;18.08;;
25049;SDS011;13046;49.814;9.918;2024-01-15T08:56:00;40.47;;;20.05;;
25049;SDS011;13046;49.814;9.918;2024-01-15T08:58:27;34.42;;;17.90;;
25049;SDS011;13046;49.814;9.918;2024-01-15T09:00:53;34.92;;;16.58;;
25049;SDS011;13046;49.814;9.918;2024-01-15T09:03:19;35.60;;;19.00;;
25049;SDS011;13046;49.814;9.918;2024-01-15T09:05:45;36.55;;;18.40;;
25049;SDS011;13046;49.814;9.918;2024-01-15T09:08:12;36.20;;;17.02;;
25049;SDS011;13046;49.814;9.918;2024-01-15T09:10:38;34.92;;;17.02;;
25049;SDS011;13046;49.814;9.918;2024-01-15T09:13:04;31.92;;;17.15;;
25049;SDS011;13046;49.814;9.918;2024-01-15T09:15:30;36.17;;;17.88;;
25049;SDS011;13046;49.814;9.918;2024-01-15T09:17:56;36.08;;;17.38;;
25049;SDS011;13046;49.814;9.918;2024-01-15T09:20:23;32.38;;;16.95;;
25049;SDS011;13046;49.814;9.918;2024-01-15T09:22:51;36.15;;;18.33;;
25049;SDS011;13046;49.814;9.918;2024-01-15T09:25:17;37.58;;;17.08;;
25049;SDS011;13046;49.814;9.918;2024-01-15T09:27:44;30.33;;;16.73;;
25049;SDS011;13046;49.814;9.918;2024-01-15T09:30:10;35.58;;;17.13;;
25049;SDS011;13046;49.814;9.918;2024-01-15T09:32:36;32.92;;;18.20;;
25049;SDS011;13046;49.814;9.918;2024-01-15T09:35:02;34.05;;;18.00;;
25049;SDS011;13046;49.814;9.918;2024-01-15T09:37:28;35.78;;;18.10;;
25049;SDS011;13046;49.814;9.918;2024-01-15T09:39:55;39.67;;;21.77;;
25049;SDS011;13046;49.814;9.918;2024-01-15T09:42:21;38.75;;;19.35;;
25049;SDS011;13046;49.814;9.918;2024-01-15T09:44:48;39.67;;;19.27;;
25049;SDS011;13046;49.814;9.918;2024-01-15T09:47:14;35.17;;;18.20;;
25049;SDS011;13046;49.814;9.918;2024-01-15T09:49:41;30.10;;;16.55;;
25049;SDS011;13046;49.814;9.918;2024-01-15T09:52:07;34.88;;;17.67;;
25049;SDS011;13046;49.814;9.918;2024-01-15T09:54:33;30.10;;;15.90;;
25049;SDS011;13046;49.814;9.918;2024-01-15T09:57:00;30.80;;;17.10;;
25049;SDS011;13046;49.814;9.918;2024-01-15T09:59:26;31.58;;;16.65;;
25049;SDS011;13046;49.814;9.918;2024-01-15T10:01:52;29.20;;;16.08;;
25049;SDS011;13046;49.814;9.918;2024-01-15T10:04:19;31.20;;;17.33;;
25049;SDS011;13046;49.814;9.918;2024-01-15T10:06:45;29.25;;;17.60;;
25049;SDS011;13046;49.814;9.918;2024-01-15T10:09:13;32.35;;;16.80;;
25049;SDS011;13046;49.814;9.918;2024-01-15T10:11:42;29.25;;;16.65;;
25049;SDS011;13046;49.814;9.918;2024-01-15T10:14:09;33.50;;;18.88;;
25049;SDS011;13046;49.814;9.918;2024-01-15T10:16:38;31.58;;;18.20;;
25049;SDS011;13046;49.814;9.918;2024-01-15T10:19:04;37.10;;;18.63;;
25049;SDS011;13046;49.814;9.918;2024-01-15T10:21:33;32.83;;;19.65;;
25049;SDS011;13046;49.814;9.918;2024-01-15T10:24:02;33.22;;;17.63;;
25049;SDS011;13046;49.814;9.918;2024-01-15T10:26:29;30.88;;;16.20;;
25049;SDS011;13046;49.814;9.918;2024-01-15T10:28:55;27.40;;;16.30;;
25049;SDS011;13046;49.814;9.918;2024-01-15T10:31:22;32.28;;;16.58;;
25049;SDS011;13046;49.814;9.918;2024-01-15T10:33:48;28.20;;;15.20;;
25049;SDS011;13046;49.814;9.918;2024-01-15T10:36:15;30.48;;;15.75;;
25049;SDS011;13046;49.814;9.918;2024-01-15T10:38:45;30.83;;;16.52;;
25049;SDS011;13046;49.814;9.918;2024-01-15T10:41:12;27.75;;;15.93;;
25049;SDS011;13046;49.814;9.918;2024-01-15T10:43:38;28.75;;;16.17;;
25049;SDS011;13046;49.814;9.918;2024-01-15T10:46:06;29.02;;;17.20;;
25049;SDS011;13046;49.814;9.918;2024-01-15T10:48:32;30.85;;;16.30;;
25049;SDS011;13046;49.814;9.918;2024-01-15T10:51:00;27.50;;;15.70;;
25049;SDS011;13046;49.814;9.918;2024-01-15T10:53:33;25.17;;;16.63;;
25049;SDS011;13046;49.814;9.918;2024-01-15T10:56:01;29.60;;;16.77;;
25049;SDS011;13046;49.814;9.918;2024-01-15T10:58:28;27.48;;;15.25;;
25049;SDS011;13046;49.814;9.918;2024-01-15T11:00:56;39.20;;;17.83;;
25049;SDS011;13046;49.814;9.918;2024-01-15T11:03:22;26.88;;;16.40;;
25049;SDS011;13046;49.814;9.918;2024-01-15T11:05:48;28.02;;;16.42;;
25049;SDS011;13046;49.814;9.918;2024-01-15T11:08:16;24.35;;;15.35;;
25049;SDS011;13046;49.814;9.918;2024-01-15T11:16:03;26.63;;;16.33;;
25049;SDS011;13046;49.814;9.918;2024-01-15T11:18:30;24.70;;;14.40;;
25049;SDS011;13046;49.814;9.918;2024-01-15T11:23:51;27.38;;;15.40;;
25049;SDS011;13046;49.814;9.918;2024-01-15T11:26:34;32.15;;;15.52;;
25049;SDS011;13046;49.814;9.918;2024-01-15T11:29:04;28.38;;;17.33;;
25049;SDS011;13046;49.814;9.918;2024-01-15T11:34:07;27.73;;;15.57;;
25049;SDS011;13046;49.814;9.918;2024-01-15T11:42:03;26.60;;;16.15;;
25049;SDS011;13046;49.814;9.918;2024-01-15T11:44:29;28.48;;;16.10;;
25049;SDS011;13046;49.814;9.918;2024-01-15T11:47:05;27.55;;;15.88;;
25049;SDS011;13046;49.814;9.918;2024-01-15T11:50:05;23.70;;;16.58;;
25049;SDS011;13046;49.814;9.918;2024-01-15T11:57:32;23.70;;;14.30;;
25049;SDS011;13046;49.814;9.918;2024-01-15T11:59:59;23.35;;;14.15;;
25049;SDS011;13046;49.814;9.918;2024-01-15T12:02:25;22.60;;;14.27;;
25049;SDS011;13046;49.814;9.918;2024-01-15T12:04:51;27.27;;;16.00;;
25049;SDS011;13046;49.814;9.918;2024-01-15T12:07:17;21.77;;;13.32;;
25049;SDS011;13046;49.814;9.918;2024-01-15T12:09:43;27.73;;;15.30;;
25049;SDS011;13046;49.814;9.918;2024-01-15T12:12:09;27.48;;;15.43;;
25049;SDS011;13046;49.814;9.918;2024-01-15T12:14:39;25.20;;;15.02;;
25049;SDS011;13046;49.814;9.918;2024-01-15T12:17:06;28.30;;;14.23;;
25049;SDS011;13046;49.814;9.918;2024-01-15T12:19:32;20.60;;;14.55;;
25049;SDS011;13046;49.814;9.918;2024-01-15T12:21:58;20.92;;;13.55;;
25049;SDS011;13046;49.814;9.918;2024-01-15T12:24:24;23.88;;;15.32;;
25049;SDS011;13046;49.814;9.918;2024-01-15T12:26:50;25.10;;;14.50;;
25049;SDS011;13046;49.814;9.918;2024-01-15T12:29:17;26.70;;;14.98;;
25049;SDS011;13046;49.814;9.918;2024-01-15T12:31:46;26.30;;;14.73;;
25049;SDS011;13046;49.814;9.918;2024-01-15T12:34:12;26.45;;;14.80;;
25049;SDS011;13046;49.814;9.918;2024-01-15T12:36:40;28.67;;;16.42;;
25049;SDS011;13046;49.814;9.918;2024-01-15T12:39:10;28.35;;;17.42;;
25049;SDS011;13046;49.814;9.918;2024-01-15T12:41:37;25.60;;;15.48;;
25049;SDS011;13046;49.814;9.918;2024-01-15T12:44:04;29.10;;;15.65;;
25049;SDS011;13046;49.814;9.918;2024-01-15T12:46:30;26.08;;;13.48;;
25049;SDS011;13046;49.814;9.918;2024-01-15T12:48:57;24.17;;;13.93;;
25049;SDS011;13046;49.814;9.918;2024-01-15T12:51:26;28.55;;;15.65;;
25049;SDS011;13046;49.814;9.918;2024-01-15T12:53:53;20.35;;;13.48;;
25049;SDS011;13046;49.814;9.918;2024-01-15T12:56:19;19.23;;;12.60;;
25049;SDS011;13046;49.814;9.918;2024-01-15T12:58:45;20.75;;;13.43;;
25049;SDS011;13046;49.814;9.918;2024-01-15T13:01:12;19.45;;;12.50;;
25049;SDS011;13046;49.814;9.918;2024-01-15T13:03:38;15.60;;;11.75;;
25049;SDS011;13046;49.814;9.918;2024-01-15T13:06:04;18.80;;;11.93;;
25049;SDS011;13046;49.814;9.918;2024-01-15T13:08:30;14.85;;;10.73;;
25049;SDS011;13046;49.814;9.918;2024-01-15T13:10:56;16.40;;;12.20;;
25049;SDS011;13046;49.814;9.918;2024-01-15T13:13:22;17.95;;;10.75;;
25049;SDS011;13046;49.814;9.918;2024-01-15T13:15:49;15.15;;;10.88;;
25049;SDS011;13046;49.814;9.918;2024-01-15T13:18:15;19.63;;;11.75;;
25049;SDS011;13046;49.814;9.918;2024-01-15T13:20:41;14.45;;;10.52;;
25049;SDS011;13046;49.814;9.918;2024-01-15T13:23:07;16.38;;;10.85;;
25049;SDS011;13046;49.814;9.918;2024-01-15T13:25:35;15.45;;;10.73;;
25049;SDS011;13046;49.814;9.918;2024-01-15T13:28:03;19.20;;;11.40;;
25049;SDS011;13046;49.814;9.918;2024-01-15T13:30:30;38.45;;;20.75;;
25049;SDS011;13046;49.814;9.918;2024-01-15T13:32:56;17.40;;;12.60;;
25049;SDS011;13046;49.814;9.918;2024-01-15T13:35:24;18.33;;;12.88;;
25049;SDS011;13046;49.814;9.918;2024-01-15T13:37:50;15.35;;;10.68;;
25049;SDS011;13046;49.814;9.918;2024-01-15T13:40:16;15.45;;;10.13;;
25049;SDS011;13046;49.814;9.918;2024-01-15T13:42:45;18.38;;;11.85;;
25049;SDS011;13046;49.814;9.918;2024-01-15T13:45:12;15.90;;;11.80;;
25049;SDS011;13046;49.814;9.918;2024-01-15T13:47:41;17.58;;;10.88;;
25049;SDS011;13046;49.814;9.918;2024-01-15T13:50:09;14.30;;;10.88;;
25049;SDS011;13046;49.814;9.918;2024-01-15T13:52:35;16.40;;;11.88;;
25049;SDS011;13046;49.814;9.918;2024-01-15T13:55:01;15.05;;;10.57;;
25049;SDS011;13046;49.814;9.918;2024-01-15T13:57:27;17.45;;;11.40;;
25049;SDS011;13046;49.814;9.918;2024-01-15T13:59:53;17.92;;;11.48;;
25049;SDS011;13046;49.814;9.918;2024-01-15T14:02:20;17.30;;;13.02;;
25049;SDS011;13046;49.814;9.918;2024-01-15T14:04:46;18.05;;;11.50;;
25049;SDS011;13046;49.814;9.918;2024-01-15T14:07:12;18.70;;;11.80;;
25049;SDS011;13046;49.814;9.918;2024-01-15T14:09:38;17.17;;;11.93;;
25049;SDS011;13046;49.814;9.918;2024-01-15T14:12:05;16.88;;;11.35;;
25049;SDS011;13046;49.814;9.918;2024-01-15T14:14:31;16.08;;;10.80;;
25049;SDS011;13046;49.814;9.918;2024-01-15T14:16:58;15.55;;;11.88;;
25049;SDS011;13046;49.814;9.918;2024-01-15T14:19:24;17.50;;;11.60;;
25049;SDS011;13046;49.814;9.918;2024-01-15T14:21:50;21.00;;;14.02;;
25049;SDS011;13046;49.814;9.918;2024-01-15T14:24:16;24.88;;;16.88;;
25049;SDS011;13046;49.814;9.918;2024-01-15T14:26:43;20.48;;;13.75;;
25049;SDS011;13046;49.814;9.918;2024-01-15T14:29:10;16.23;;;12.55;;
25049;SDS011;13046;49.814;9.918;2024-01-15T14:31:36;19.27;;;12.48;;
25049;SDS011;13046;49.814;9.918;2024-01-15T14:34:02;18.45;;;12.48;;
25049;SDS011;13046;49.814;9.918;2024-01-15T14:36:29;16.20;;;11.38;;
25049;SDS011;13046;49.814;9.918;2024-01-15T14:38:55;19.95;;;12.95;;